sensor_id;sensor_type;location;lat;lon;timestamp;P1;durP1;ratioP1;P2;durP2;ratioP2
31390;SDS011;18022;45.492;11.548;2022-12-10T00:01:11;23.08;;;16.95;;
31390;SDS011;18022;45.492;11.548;2022-12-10T00:03:42;23.27;;;17.30;;
31390;SDS011;18022;45.492;11.548;2022-12-10T00:06:13;24.15;;;16.83;;
31390;SDS011;18022;45.492;11.548;2022-12-10T00:08:44;36.28;;;21.48;;
31390;SDS011;18022;45.492;11.548;2022-12-10T00:11:10;26.92;;;19.80;;
31390;SDS011;18022;45.492;11.548;2022-12-10T00:13:37;32.75;;;22.13;;
31390;SDS011;18022;45.492;11.548;2022-12-10T00:16:04;32.38;;;21.00;;
31390;SDS011;18022;45.492;11.548;2022-12-10T00:18:31;27.88;;;20.30;;
31390;SDS011;18022;45.492;11.548;2022-12-10T00:20:58;32.65;;;21.42;;
31390;SDS011;18022;45.492;11.548;2022-12-10T00:23:26;30.67;;;20.67;;
31390;SDS011;18022;45.492;11.548;2022-12-10T00:25:52;28.52;;;19.40;;
31390;SDS011;18022;45.492;11.548;2022-12-10T00:28:17;25.23;;;19.17;;
31390;SDS011;18022;45.492;11.548;2022-12-10T00:30:43;21.40;;;17.20;;
31390;SDS011;18022;45.492;11.548;2022-12-10T00:33:09;22.70;;;17.23;;
31390;SDS011;18022;45.492;11.548;2022-12-10T00:35:35;21.65;;;16.73;;
31390;SDS011;18022;45.492;11.548;2022-12-10T00:38:01;21.10;;;17.33;;
31390;SDS011;18022;45.492;11.548;2022-12-10T00:40:27;27.50;;;20.40;;
31390;SDS011;18022;45.492;11.548;2022-12-10T00:42:53;28.10;;;20.60;;
31390;SDS011;18022;45.492;11.548;2022-12-10T00:45:18;28.90;;;21.63;;
31390;SDS011;18022;45.492;11.548;2022-12-10T00:47:44;27.73;;;21.52;;
31390;SDS011;18022;45.492;11.548;2022-12-10T00:50:10;30.25;;;21.60;;
31390;SDS011;18022;45.492;11.548;2022-12-10T00:52:36;28.00;;;21.23;;
31390;SDS011;18022;45.492;11.548;2022-12-10T00:55:01;30.55;;;21.92;;
31390;SDS011;18022;45.492;11.548;2022-12-10T00:57:27;31.50;;;22.80;;
31390;SDS011;18022;45.492;11.548;2022-12-10T00:59:53;31.88;;;22.10;;
31390;SDS011;18022;45.492;11.548;2022-12-10T01:02:19;31.20;;;23.10;;
31390;SDS011;18022;45.492;11.548;2022-12-10T01:04:45;32.35;;;22.23;;
31390;SDS011;18022;45.492;11.548;2022-12-10T01:07:11;30.17;;;22.27;;
31390;SDS011;18022;45.492;11.548;2022-12-10T01:09:38;25.97;;;20.50;;
31390;SDS011;18022;45.492;11.548;2022-12-10T01:12:04;27.70;;;19.77;;
31390;SDS011;18022;45.492;11.548;2022-12-10T01:14:31;25.27;;;19.10;;
31390;SDS011;18022;45.492;11.548;2022-12-10T01:16:59;28.20;;;19.65;;
31390;SDS011;18022;45.492;11.548;2022-12-10T01:19:29;25.13;;;19.25;;
31390;SDS011;18022;45.492;11.548;2022-12-10T01:21:55;29.65;;;20.52;;
31390;SDS011;18022;45.492;11.548;2022-12-10T01:24:22;25.92;;;20.27;;
31390;SDS011;18022;45.492;11.548;2022-12-10T01:26:49;26.45;;;20.38;;
31390;SDS011;18022;45.492;11.548;2022-12-10T01:29:16;26.77;;;19.92;;
31390;SDS011;18022;45.492;11.548;2022-12-10T01:31:42;26.92;;;19.58;;
31390;SDS011;18022;45.492;11.548;2022-12-10T01:34:10;24.65;;;19.17;;
31390;SDS011;18022;45.492;11.548;2022-12-10T01:36:39;26.15;;;18.92;;
31390;SDS011;18022;45.492;11.548;2022-12-10T01:39:08;25.58;;;18.60;;
31390;SDS011;18022;45.492;11.548;2022-12-10T01:41:43;23.95;;;18.50;;
31390;SDS011;18022;45.492;11.548;2022-12-10T01:46:43;22.30;;;17.77;;
31390;SDS011;18022;45.492;11.548;2022-12-10T01:49:12;26.58;;;19.23;;
31390;SDS011;18022;45.492;11.548;2022-12-10T01:51:44;27.75;;;20.55;;
31390;SDS011;18022;45.492;11.548;2022-12-10T01:54:16;28.58;;;20.00;;
31390;SDS011;18022;45.492;11.548;2022-12-10T01:56:45;29.70;;;20.90;;
31390;SDS011;18022;45.492;11.548;2022-12-10T01:59:15;25.55;;;19.38;;
31390;SDS011;18022;45.492;11.548;2022-12-10T02:02:16;28.85;;;20.05;;
31390;SDS011;18022;45.492;11.548;2022-12-10T02:07:52;26.65;;;19.98;;
31390;SDS011;18022;45.492;11.548;2022-12-10T02:13:23;23.85;;;18.92;;
31390;SDS011;18022;45.492;11.548;2022-12-10T02:16:14;26.90;;;19.75;;
31390;SDS011;18022;45.492;11.548;2022-12-10T02:18:54;25.13;;;19.30;;
31390;SDS011;18022;45.492;11.548;2022-12-10T02:21:42;29.48;;;20.02;;
31390;SDS011;18022;45.492;11.548;2022-12-10T02:24:11;24.20;;;18.88;;
31390;SDS011;18022;45.492;11.548;2022-12-10T02:26:43;26.35;;;19.77;;
31390;SDS011;18022;45.492;11.548;2022-12-10T02:29:16;23.65;;;18.95;;
31390;SDS011;18022;45.492;11.548;2022-12-10T02:31:49;24.98;;;17.55;;
31390;SDS011;18022;45.492;11.548;2022-12-10T02:34:18;28.73;;;21.20;;
31390;SDS011;18022;45.492;11.548;2022-12-10T02:36:47;24.80;;;18.83;;
31390;SDS011;18022;45.492;11.548;2022-12-10T02:39:17;26.45;;;20.27;;
31390;SDS011;18022;45.492;11.548;2022-12-10T02:41:55;28.45;;;20.52;;
31390;SDS011;18022;45.492;11.548;2022-12-10T02:44:23;31.52;;;22.42;;
31390;SDS011;18022;45.492;11.548;2022-12-10T02:46:51;29.20;;;21.65;;
31390;SDS011;18022;45.492;11.548;2022-12-10T02:49:19;25.17;;;20.10;;
31390;SDS011;18022;45.492;11.548;2022-12-10T02:51:46;28.20;;;21.70;;
31390;SDS011;18022;45.492;11.548;2022-12-10T03:05:55;24.50;;;18.67;;
31390;SDS011;18022;45.492;11.548;2022-12-10T03:11:29;28.50;;;21.88;;
31390;SDS011;18022;45.492;11.548;2022-12-10T03:16:44;28.98;;;21.17;;
31390;SDS011;18022;45.492;11.548;2022-12-10T03:19:16;32.53;;;22.08;;
31390;SDS011;18022;45.492;11.548;2022-12-10T03:21:44;29.05;;;20.73;;
31390;SDS011;18022;45.492;11.548;2022-12-10T03:24:14;29.10;;;21.98;;
31390;SDS011;18022;45.492;11.548;2022-12-10T03:26:40;27.98;;;20.25;;
31390;SDS011;18022;45.492;11.548;2022-12-10T03:29:09;28.63;;;21.05;;
31390;SDS011;18022;45.492;11.548;2022-12-10T03:31:40;27.85;;;20.65;;
31390;SDS011;18022;45.492;11.548;2022-12-10T03:34:07;27.30;;;20.55;;
31390;SDS011;18022;45.492;11.548;2022-12-10T03:39:00;29.00;;;21.52;;
31390;SDS011;18022;45.492;11.548;2022-12-10T03:41:26;26.90;;;20.05;;
31390;SDS011;18022;45.492;11.548;2022-12-10T03:43:53;26.88;;;20.80;;
31390;SDS011;18022;45.492;11.548;2022-12-10T03:46:21;27.25;;;20.67;;
31390;SDS011;18022;45.492;11.548;2022-12-10T03:48:48;26.52;;;20.60;;
31390;SDS011;18022;45.492;11.548;2022-12-10T03:51:15;27.08;;;19.45;;
31390;SDS011;18022;45.492;11.548;2022-12-10T03:53:40;27.15;;;20.17;;
31390;SDS011;18022;45.492;11.548;2022-12-10T03:56:07;27.85;;;20.48;;
31390;SDS011;18022;45.492;11.548;2022-12-10T03:58:33;28.13;;;20.95;;
31390;SDS011;18022;45.492;11.548;2022-12-10T04:00:58;31.08;;;20.25;;
31390;SDS011;18022;45.492;11.548;2022-12-10T04:03:24;29.77;;;21.33;;
31390;SDS011;18022;45.492;11.548;2022-12-10T04:05:50;28.80;;;20.40;;
31390;SDS011;18022;45.492;11.548;2022-12-10T04:08:16;28.85;;;20.38;;
31390;SDS011;18022;45.492;11.548;2022-12-10T04:10:41;27.80;;;20.35;;
31390;SDS011;18022;45.492;11.548;2022-12-10T04:13:07;28.27;;;20.38;;
31390;SDS011;18022;45.492;11.548;2022-12-10T04:15:51;27.50;;;20.38;;
31390;SDS011;18022;45.492;11.548;2022-12-10T04:18:37;28.48;;;19.45;;
31390;SDS011;18022;45.492;11.548;2022-12-10T04:21:03;26.65;;;20.33;;
31390;SDS011;18022;45.492;11.548;2022-12-10T04:23:47;25.92;;;19.23;;
31390;SDS011;18022;45.492;11.548;2022-12-10T04:26:31;26.08;;;19.63;;
31390;SDS011;18022;45.492;11.548;2022-12-10T04:29:15;26.33;;;19.83;;
31390;SDS011;18022;45.492;11.548;2022-12-10T04:31:41;27.77;;;20.02;;
31390;SDS011;18022;45.492;11.548;2022-12-10T04:34:07;29.58;;;20.85;;
31390;SDS011;18022;45.492;11.548;2022-12-10T04:36:32;28.08;;;19.90;;
31390;SDS011;18022;45.492;11.548;2022-12-10T04:38:58;27.48;;;19.52;;
31390;SDS011;18022;45.492;11.548;2022-12-10T04:41:24;24.67;;;19.27;;
31390;SDS011;18022;45.492;11.548;2022-12-10T04:43:49;26.52;;;19.70;;
31390;SDS011;18022;45.492;11.548;2022-12-10T04:46:16;27.57;;;21.07;;
31390;SDS011;18022;45.492;11.548;2022-12-10T04:48:42;26.92;;;20.25;;
31390;SDS011;18022;45.492;11.548;2022-12-10T04:51:08;26.05;;;19.83;;
31390;SDS011;18022;45.492;11.548;2022-12-10T04:53:33;26.42;;;20.35;;
31390;SDS011;18022;45.492;11.548;2022-12-10T04:55:59;28.38;;;21.10;;
31390;SDS011;18022;45.492;11.548;2022-12-10T04:58:26;32.47;;;22.08;;
31390;SDS011;18022;45.492;11.548;2022-12-10T05:01:06;31.08;;;21.42;;
31390;SDS011;18022;45.492;11.548;2022-12-10T05:03:33;29.33;;;21.48;;
31390;SDS011;18022;45.492;11.548;2022-12-10T05:06:04;30.70;;;21.20;;
31390;SDS011;18022;45.492;11.548;2022-12-10T05:08:31;26.42;;;19.95;;
31390;SDS011;18022;45.492;11.548;2022-12-10T05:11:03;27.50;;;20.35;;
31390;SDS011;18022;45.492;11.548;2022-12-10T05:16:01;25.08;;;18.58;;
31390;SDS011;18022;45.492;11.548;2022-12-10T05:18:28;28.23;;;19.10;;
31390;SDS011;18022;45.492;11.548;2022-12-10T05:20:53;29.67;;;20.73;;
31390;SDS011;18022;45.492;11.548;2022-12-10T05:23:19;29.60;;;20.80;;
31390;SDS011;18022;45.492;11.548;2022-12-10T05:26:00;29.83;;;20.10;;
31390;SDS011;18022;45.492;11.548;2022-12-10T05:28:31;28.23;;;20.40;;
31390;SDS011;18022;45.492;11.548;2022-12-10T05:30:59;28.73;;;21.25;;
31390;SDS011;18022;45.492;11.548;2022-12-10T05:33:25;29.67;;;21.67;;
31390;SDS011;18022;45.492;11.548;2022-12-10T05:35:55;28.92;;;21.02;;
31390;SDS011;18022;45.492;11.548;2022-12-10T05:38:25;28.67;;;20.38;;
31390;SDS011;18022;45.492;11.548;2022-12-10T05:40:52;30.05;;;20.83;;
31390;SDS011;18022;45.492;11.548;2022-12-10T05:43:18;29.65;;;20.92;;
31390;SDS011;18022;45.492;11.548;2022-12-10T05:45:44;27.95;;;20.48;;
31390;SDS011;18022;45.492;11.548;2022-12-10T05:48:10;28.10;;;20.15;;
31390;SDS011;18022;45.492;11.548;2022-12-10T05:50:36;30.02;;;21.83;;
31390;SDS011;18022;45.492;11.548;2022-12-10T05:53:02;32.30;;;21.92;;
31390;SDS011;18022;45.492;11.548;2022-12-10T05:55:28;32.15;;;21.25;;
31390;SDS011;18022;45.492;11.548;2022-12-10T05:57:54;30.23;;;20.88;;
31390;SDS011;18022;45.492;11.548;2022-12-10T06:00:20;37.42;;;23.38;;
31390;SDS011;18022;45.492;11.548;2022-12-10T06:02:48;33.95;;;22.17;;
31390;SDS011;18022;45.492;11.548;2022-12-10T06:05:15;33.28;;;21.23;;
31390;SDS011;18022;45.492;11.548;2022-12-10T06:07:41;33.13;;;20.52;;
31390;SDS011;18022;45.492;11.548;2022-12-10T06:10:06;28.27;;;20.95;;
31390;SDS011;18022;45.492;11.548;2022-12-10T06:12:33;29.80;;;20.77;;
31390;SDS011;18022;45.492;11.548;2022-12-10T06:14:58;28.88;;;20.40;;
31390;SDS011;18022;45.492;11.548;2022-12-10T06:17:24;30.17;;;21.52;;
31390;SDS011;18022;45.492;11.548;2022-12-10T06:19:50;32.67;;;21.33;;
31390;SDS011;18022;45.492;11.548;2022-12-10T06:22:15;29.83;;;21.17;;
31390;SDS011;18022;45.492;11.548;2022-12-10T06:24:41;29.70;;;20.00;;
31390;SDS011;18022;45.492;11.548;2022-12-10T06:27:07;34.50;;;20.73;;
31390;SDS011;18022;45.492;11.548;2022-12-10T06:29:33;32.72;;;21.02;;
31390;SDS011;18022;45.492;11.548;2022-12-10T06:31:59;30.70;;;21.48;;
31390;SDS011;18022;45.492;11.548;2022-12-10T06:34:24;28.98;;;21.00;;
31390;SDS011;18022;45.492;11.548;2022-12-10T06:36:50;27.88;;;19.95;;
31390;SDS011;18022;45.492;11.548;2022-12-10T06:39:16;30.67;;;20.45;;
31390;SDS011;18022;45.492;11.548;2022-12-10T06:41:41;28.65;;;20.70;;
31390;SDS011;18022;45.492;11.548;2022-12-10T06:44:09;29.35;;;20.45;;
31390;SDS011;18022;45.492;11.548;2022-12-10T06:46:35;33.63;;;21.13;;
31390;SDS011;18022;45.492;11.548;2022-12-10T06:49:01;29.65;;;21.15;;
31390;SDS011;18022;45.492;11.548;2022-12-10T06:51:28;31.48;;;22.20;;
31390;SDS011;18022;45.492;11.548;2022-12-10T06:53:54;31.25;;;20.98;;
31390;SDS011;18022;45.492;11.548;2022-12-10T06:56:20;30.38;;;20.70;;
31390;SDS011;18022;45.492;11.548;2022-12-10T06:58:46;30.10;;;20.65;;
31390;SDS011;18022;45.492;11.548;2022-12-10T07:01:13;28.83;;;19.70;;
31390;SDS011;18022;45.492;11.548;2022-12-10T07:03:41;28.50;;;20.90;;
31390;SDS011;18022;45.492;11.548;2022-12-10T07:06:08;28.08;;;19.90;;
31390;SDS011;18022;45.492;11.548;2022-12-10T07:08:35;29.30;;;20.33;;
31390;SDS011;18022;45.492;11.548;2022-12-10T07:11:05;26.92;;;19.73;;
31390;SDS011;18022;45.492;11.548;2022-12-10T07:13:32;28.73;;;20.50;;
31390;SDS011;18022;45.492;11.548;2022-12-10T07:15:58;30.30;;;20.65;;
31390;SDS011;18022;45.492;11.548;2022-12-10T07:18:24;27.85;;;19.88;;
31390;SDS011;18022;45.492;11.548;2022-12-10T07:20:50;29.60;;;20.20;;
31390;SDS011;18022;45.492;11.548;2022-12-10T07:23:16;29.58;;;20.05;;
31390;SDS011;18022;45.492;11.548;2022-12-10T07:25:41;30.58;;;19.98;;
31390;SDS011;18022;45.492;11.548;2022-12-10T07:28:07;26.55;;;19.63;;
31390;SDS011;18022;45.492;11.548;2022-12-10T07:30:33;26.17;;;19.08;;
31390;SDS011;18022;45.492;11.548;2022-12-10T07:32:59;29.60;;;20.25;;
31390;SDS011;18022;45.492;11.548;2022-12-10T07:35:24;29.15;;;20.52;;
31390;SDS011;18022;45.492;11.548;2022-12-10T07:37:50;28.20;;;20.30;;
31390;SDS011;18022;45.492;11.548;2022-12-10T07:40:16;33.53;;;20.58;;
31390;SDS011;18022;45.492;11.548;2022-12-10T07:42:42;33.78;;;20.95;;
31390;SDS011;18022;45.492;11.548;2022-12-10T07:45:08;28.88;;;19.80;;
31390;SDS011;18022;45.492;11.548;2022-12-10T07:47:37;27.52;;;19.88;;
31390;SDS011;18022;45.492;11.548;2022-12-10T07:50:04;27.50;;;18.90;;
31390;SDS011;18022;45.492;11.548;2022-12-10T07:52:30;33.28;;;19.83;;
31390;SDS011;18022;45.492;11.548;2022-12-10T07:54:56;27.15;;;19.88;;
31390;SDS011;18022;45.492;11.548;2022-12-10T07:57:21;29.77;;;20.23;;
31390;SDS011;18022;45.492;11.548;2022-12-10T07:59:47;28.38;;;20.23;;
31390;SDS011;18022;45.492;11.548;2022-12-10T08:02:13;27.50;;;19.55;;
31390;SDS011;18022;45.492;11.548;2022-12-10T08:04:38;25.75;;;19.95;;
31390;SDS011;18022;45.492;11.548;2022-12-10T08:07:04;35.00;;;24.23;;
31390;SDS011;18022;45.492;11.548;2022-12-10T08:09:30;32.00;;;22.33;;
31390;SDS011;18022;45.492;11.548;2022-12-10T08:11:56;30.42;;;22.27;;
31390;SDS011;18022;45.492;11.548;2022-12-10T08:14:22;32.80;;;22.52;;
31390;SDS011;18022;45.492;11.548;2022-12-10T08:16:48;29.48;;;20.38;;
31390;SDS011;18022;45.492;11.548;2022-12-10T08:19:13;31.48;;;21.10;;
31390;SDS011;18022;45.492;11.548;2022-12-10T08:21:39;29.30;;;20.80;;
31390;SDS011;18022;45.492;11.548;2022-12-10T08:24:05;30.63;;;20.95;;
31390;SDS011;18022;45.492;11.548;2022-12-10T08:26:31;31.48;;;21.10;;
31390;SDS011;18022;45.492;11.548;2022-12-10T08:28:58;24.53;;;11.10;;
31390;SDS011;18022;45.492;11.548;2022-12-10T08:31:25;28.25;;;19.60;;
31390;SDS011;18022;45.492;11.548;2022-12-10T08:33:51;32.03;;;21.90;;
31390;SDS011;18022;45.492;11.548;2022-12-10T08:36:18;93.25;;;69.22;;
31390;SDS011;18022;45.492;11.548;2022-12-10T08:38:44;55.13;;;38.08;;
31390;SDS011;18022;45.492;11.548;2022-12-10T08:41:12;31.90;;;22.70;;
31390;SDS011;18022;45.492;11.548;2022-12-10T08:43:42;31.55;;;22.13;;
31390;SDS011;18022;45.492;11.548;2022-12-10T08:46:10;31.50;;;21.90;;
31390;SDS011;18022;45.492;11.548;2022-12-10T08:48:37;28.45;;;21.05;;
31390;SDS011;18022;45.492;11.548;2022-12-10T08:51:04;29.85;;;20.52;;
31390;SDS011;18022;45.492;11.548;2022-12-10T08:53:31;35.55;;;23.98;;
31390;SDS011;18022;45.492;11.548;2022-12-10T08:55:57;29.25;;;20.52;;
31390;SDS011;18022;45.492;11.548;2022-12-10T08:58:23;30.08;;;21.13;;
31390;SDS011;18022;45.492;11.548;2022-12-10T09:00:48;29.77;;;21.50;;
31390;SDS011;18022;45.492;11.548;2022-12-10T09:03:14;29.20;;;21.10;;
31390;SDS011;18022;45.492;11.548;2022-12-10T09:05:40;30.25;;;22.70;;
31390;SDS011;18022;45.492;11.548;2022-12-10T09:08:07;22.25;;;14.65;;
31390;SDS011;18022;45.492;11.548;2022-12-10T09:10:32;29.05;;;19.50;;
31390;SDS011;18022;45.492;11.548;2022-12-10T09:13:01;23.13;;;17.70;;
31390;SDS011;18022;45.492;11.548;2022-12-10T09:15:27;26.40;;;18.25;;
31390;SDS011;18022;45.492;11.548;2022-12-10T09:17:52;32.45;;;22.42;;
31390;SDS011;18022;45.492;11.548;2022-12-10T09:20:18;24.98;;;19.35;;
31390;SDS011;18022;45.492;11.548;2022-12-10T09:22:44;26.13;;;17.83;;
31390;SDS011;18022;45.492;11.548;2022-12-10T09:25:09;31.27;;;22.83;;
31390;SDS011;18022;45.492;11.548;2022-12-10T09:27:35;28.75;;;21.02;;
31390;SDS011;18022;45.492;11.548;2022-12-10T09:30:03;33.08;;;22.42;;
31390;SDS011;18022;45.492;11.548;2022-12-10T09:32:29;34.17;;;23.88;;
31390;SDS011;18022;45.492;11.548;2022-12-10T09:34:55;36.95;;;25.15;;
31390;SDS011;18022;45.492;11.548;2022-12-10T09:37:21;33.65;;;24.05;;
31390;SDS011;18022;45.492;11.548;2022-12-10T09:39:46;34.65;;;23.15;;
31390;SDS011;18022;45.492;11.548;2022-12-10T09:47:17;36.65;;;25.10;;
31390;SDS011;18022;45.492;11.548;2022-12-10T09:52:43;26.20;;;19.52;;
31390;SDS011;18022;45.492;11.548;2022-12-10T09:57:45;22.10;;;16.17;;
31390;SDS011;18022;45.492;11.548;2022-12-10T10:02:49;25.25;;;15.75;;
31390;SDS011;18022;45.492;11.548;2022-12-10T10:05:20;19.35;;;15.50;;
31390;SDS011;18022;45.492;11.548;2022-12-10T10:08:05;20.02;;;14.93;;
31390;SDS011;18022;45.492;11.548;2022-12-10T10:10:38;20.67;;;14.88;;
31390;SDS011;18022;45.492;11.548;2022-12-10T10:15:43;19.20;;;13.77;;
31390;SDS011;18022;45.492;11.548;2022-12-10T10:20:38;17.58;;;12.85;;
31390;SDS011;18022;45.492;11.548;2022-12-10T10:23:04;16.77;;;12.48;;
31390;SDS011;18022;45.492;11.548;2022-12-10T10:25:30;17.80;;;12.77;;
31390;SDS011;18022;45.492;11.548;2022-12-10T10:27:56;15.70;;;12.45;;
31390;SDS011;18022;45.492;11.548;2022-12-10T10:30:22;14.82;;;11.90;;
31390;SDS011;18022;45.492;11.548;2022-12-10T10:32:53;18.52;;;12.55;;
31390;SDS011;18022;45.492;11.548;2022-12-10T10:35:25;14.93;;;11.55;;
31390;SDS011;18022;45.492;11.548;2022-12-10T10:38:01;16.38;;;11.02;;
31390;SDS011;18022;45.492;11.548;2022-12-10T10:40:39;16.65;;;12.07;;
31390;SDS011;18022;45.492;11.548;2022-12-10T10:43:08;14.35;;;11.23;;
31390;SDS011;18022;45.492;11.548;2022-12-10T10:45:47;14.45;;;11.55;;
31390;SDS011;18022;45.492;11.548;2022-12-10T10:48:22;15.70;;;12.38;;
31390;SDS011;18022;45.492;11.548;2022-12-10T10:50:53;14.23;;;11.40;;
31390;SDS011;18022;45.492;11.548;2022-12-10T10:53:29;14.40;;;11.65;;
31390;SDS011;18022;45.492;11.548;2022-12-10T10:56:01;14.18;;;11.30;;
31390;SDS011;18022;45.492;11.548;2022-12-10T10:58:33;16.35;;;11.60;;
31390;SDS011;18022;45.492;11.548;2022-12-10T11:01:04;13.68;;;11.43;;
31390;SDS011;18022;45.492;11.548;2022-12-10T11:03:32;16.55;;;11.75;;
31390;SDS011;18022;45.492;11.548;2022-12-10T11:06:01;15.57;;;11.18;;
31390;SDS011;18022;45.492;11.548;2022-12-10T11:08:31;16.50;;;12.18;;
31390;SDS011;18022;45.492;11.548;2022-12-10T11:10:58;14.50;;;11.85;;
31390;SDS011;18022;45.492;11.548;2022-12-10T11:13:35;18.02;;;12.48;;
31390;SDS011;18022;45.492;11.548;2022-12-10T11:16:10;16.07;;;11.83;;
31390;SDS011;18022;45.492;11.548;2022-12-10T11:18:57;17.10;;;12.98;;
31390;SDS011;18022;45.492;11.548;2022-12-10T11:21:27;16.70;;;12.45;;
31390;SDS011;18022;45.492;11.548;2022-12-10T11:23:58;22.40;;;14.57;;
31390;SDS011;18022;45.492;11.548;2022-12-10T11:26:40;18.70;;;14.07;;
31390;SDS011;18022;45.492;11.548;2022-12-10T11:51:04;18.23;;;12.80;;
31390;SDS011;18022;45.492;11.548;2022-12-10T12:01:52;15.93;;;11.77;;
31390;SDS011;18022;45.492;11.548;2022-12-10T12:04:27;17.15;;;12.35;;
31390;SDS011;18022;45.492;11.548;2022-12-10T12:13:14;11.43;;;9.23;;
31390;SDS011;18022;45.492;11.548;2022-12-10T12:15:49;11.02;;;8.45;;
31390;SDS011;18022;45.492;11.548;2022-12-10T12:21:44;11.25;;;9.00;;
31390;SDS011;18022;45.492;11.548;2022-12-10T12:26:53;11.23;;;9.10;;
31390;SDS011;18022;45.492;11.548;2022-12-10T12:30:02;12.98;;;8.75;;
31390;SDS011;18022;45.492;11.548;2022-12-10T12:32:58;11.23;;;8.52;;
31390;SDS011;18022;45.492;11.548;2022-12-10T12:38:06;12.80;;;9.60;;
31390;SDS011;18022;45.492;11.548;2022-12-10T12:40:53;15.70;;;10.75;;
31390;SDS011;18022;45.492;11.548;2022-12-10T12:46:02;14.68;;;11.73;;
31390;SDS011;18022;45.492;11.548;2022-12-10T12:48:41;15.00;;;10.38;;
31390;SDS011;18022;45.492;11.548;2022-12-10T12:54:03;13.50;;;10.63;;
31390;SDS011;18022;45.492;11.548;2022-12-10T13:04:50;43.42;;;27.30;;
31390;SDS011;18022;45.492;11.548;2022-12-10T13:09:51;51.95;;;29.88;;
31390;SDS011;18022;45.492;11.548;2022-12-10T13:12:48;50.95;;;29.95;;
31390;SDS011;18022;45.492;11.548;2022-12-10T13:15:21;40.42;;;25.42;;
31390;SDS011;18022;45.492;11.548;2022-12-10T13:20:47;33.40;;;20.25;;
31390;SDS011;18022;45.492;11.548;2022-12-10T13:28:22;38.45;;;24.50;;
31390;SDS011;18022;45.492;11.548;2022-12-10T13:31:13;38.58;;;25.00;;
31390;SDS011;18022;45.492;11.548;2022-12-10T13:41:30;33.22;;;22.42;;
31390;SDS011;18022;45.492;11.548;2022-12-10T13:44:32;30.85;;;21.55;;
31390;SDS011;18022;45.492;11.548;2022-12-10T13:49:49;36.45;;;24.92;;
31390;SDS011;18022;45.492;11.548;2022-12-10T13:52:19;40.67;;;26.30;;
31390;SDS011;18022;45.492;11.548;2022-12-10T14:08:34;32.28;;;20.95;;
31390;SDS011;18022;45.492;11.548;2022-12-10T14:11:03;29.02;;;21.35;;
31390;SDS011;18022;45.492;11.548;2022-12-10T14:13:33;31.90;;;21.23;;
31390;SDS011;18022;45.492;11.548;2022-12-10T14:16:06;31.00;;;21.13;;
31390;SDS011;18022;45.492;11.548;2022-12-10T14:18:36;28.48;;;18.98;;
31390;SDS011;18022;45.492;11.548;2022-12-10T14:21:05;34.05;;;22.20;;
31390;SDS011;18022;45.492;11.548;2022-12-10T14:23:33;29.63;;;20.25;;
31390;SDS011;18022;45.492;11.548;2022-12-10T14:26:06;25.60;;;16.35;;
31390;SDS011;18022;45.492;11.548;2022-12-10T14:28:43;51.15;;;22.60;;
31390;SDS011;18022;45.492;11.548;2022-12-10T14:31:18;33.72;;;22.55;;
31390;SDS011;18022;45.492;11.548;2022-12-10T14:33:49;45.78;;;28.00;;
31390;SDS011;18022;45.492;11.548;2022-12-10T14:36:29;40.35;;;26.35;;
31390;SDS011;18022;45.492;11.548;2022-12-10T14:38:58;36.13;;;23.58;;
31390;SDS011;18022;45.492;11.548;2022-12-10T14:41:26;35.47;;;23.15;;
31390;SDS011;18022;45.492;11.548;2022-12-10T14:43:56;32.22;;;22.80;;
31390;SDS011;18022;45.492;11.548;2022-12-10T14:46:28;36.83;;;24.75;;
31390;SDS011;18022;45.492;11.548;2022-12-10T14:48:54;41.35;;;25.02;;
31390;SDS011;18022;45.492;11.548;2022-12-10T14:51:22;41.55;;;25.55;;
31390;SDS011;18022;45.492;11.548;2022-12-10T14:53:50;40.42;;;25.52;;
31390;SDS011;18022;45.492;11.548;2022-12-10T14:56:33;36.65;;;24.70;;
31390;SDS011;18022;45.492;11.548;2022-12-10T15:01:34;38.95;;;24.98;;
31390;SDS011;18022;45.492;11.548;2022-12-10T15:04:06;39.10;;;25.10;;
31390;SDS011;18022;45.492;11.548;2022-12-10T15:06:41;36.88;;;25.35;;
31390;SDS011;18022;45.492;11.548;2022-12-10T15:09:26;39.88;;;26.15;;
31390;SDS011;18022;45.492;11.548;2022-12-10T15:11:56;39.03;;;26.50;;
31390;SDS011;18022;45.492;11.548;2022-12-10T15:14:23;40.30;;;27.23;;
31390;SDS011;18022;45.492;11.548;2022-12-10T15:16:55;43.50;;;27.80;;
31390;SDS011;18022;45.492;11.548;2022-12-10T15:19:30;37.35;;;22.95;;
31390;SDS011;18022;45.492;11.548;2022-12-10T15:21:59;33.22;;;20.83;;
31390;SDS011;18022;45.492;11.548;2022-12-10T15:24:32;41.95;;;26.48;;
31390;SDS011;18022;45.492;11.548;2022-12-10T15:27:02;41.90;;;25.75;;
31390;SDS011;18022;45.492;11.548;2022-12-10T15:29:39;40.55;;;25.42;;
31390;SDS011;18022;45.492;11.548;2022-12-10T15:32:06;43.50;;;25.83;;
31390;SDS011;18022;45.492;11.548;2022-12-10T15:34:40;44.70;;;27.83;;
31390;SDS011;18022;45.492;11.548;2022-12-10T15:37:19;47.53;;;29.70;;
31390;SDS011;18022;45.492;11.548;2022-12-10T15:39:49;48.58;;;29.35;;
31390;SDS011;18022;45.492;11.548;2022-12-10T15:44:56;40.55;;;26.70;;
31390;SDS011;18022;45.492;11.548;2022-12-10T15:47:27;49.38;;;29.50;;
31390;SDS011;18022;45.492;11.548;2022-12-10T15:49:54;54.40;;;32.92;;
31390;SDS011;18022;45.492;11.548;2022-12-10T15:54:49;48.95;;;29.48;;
31390;SDS011;18022;45.492;11.548;2022-12-10T15:57:17;50.70;;;30.25;;
31390;SDS011;18022;45.492;11.548;2022-12-10T15:59:46;46.88;;;29.48;;
31390;SDS011;18022;45.492;11.548;2022-12-10T16:04:48;40.05;;;25.65;;
31390;SDS011;18022;45.492;11.548;2022-12-10T16:07:14;42.17;;;27.20;;
31390;SDS011;18022;45.492;11.548;2022-12-10T16:09:41;37.78;;;25.45;;
31390;SDS011;18022;45.492;11.548;2022-12-10T16:12:08;43.15;;;26.92;;
31390;SDS011;18022;45.492;11.548;2022-12-10T16:14:36;39.70;;;26.08;;
31390;SDS011;18022;45.492;11.548;2022-12-10T16:17:01;35.67;;;23.83;;
31390;SDS011;18022;45.492;11.548;2022-12-10T16:19:27;32.83;;;22.08;;
31390;SDS011;18022;45.492;11.548;2022-12-10T16:21:53;30.05;;;20.45;;
31390;SDS011;18022;45.492;11.548;2022-12-10T16:24:19;29.23;;;19.00;;
31390;SDS011;18022;45.492;11.548;2022-12-10T16:26:45;27.52;;;18.73;;
31390;SDS011;18022;45.492;11.548;2022-12-10T16:29:11;29.05;;;18.95;;
31390;SDS011;18022;45.492;11.548;2022-12-10T16:31:36;28.42;;;19.63;;
31390;SDS011;18022;45.492;11.548;2022-12-10T16:34:02;39.33;;;24.92;;
31390;SDS011;18022;45.492;11.548;2022-12-10T16:36:28;39.55;;;24.73;;
31390;SDS011;18022;45.492;11.548;2022-12-10T16:38:53;49.30;;;31.30;;
31390;SDS011;18022;45.492;11.548;2022-12-10T16:41:21;45.05;;;29.05;;
31390;SDS011;18022;45.492;11.548;2022-12-10T16:43:48;35.90;;;25.05;;
31390;SDS011;18022;45.492;11.548;2022-12-10T16:46:13;33.00;;;22.33;;
31390;SDS011;18022;45.492;11.548;2022-12-10T16:48:39;34.85;;;21.67;;
31390;SDS011;18022;45.492;11.548;2022-12-10T16:51:09;33.90;;;24.25;;
31390;SDS011;18022;45.492;11.548;2022-12-10T16:53:49;34.72;;;23.20;;